Time;durP1;ratioP1;P1;durP2;ratioP2;P2;SDS_P1;SDS_P2;PMS_P1;PMS_P2;Temp;Humidity;BMP_temperature;BMP_pressure;BME280_temperature;BME280_humidity;BME280_pressure;Samples;Min_cycle;Max_cycle;Signal;HPM_P1;HPM_P2
2021/11/26 00:00:15;;;;;;;59.23;27.70;;;6.20;99.40;;;;;;4993720;28;20474;-70
2021/11/26 00:02:41;;;;;;;58.90;29.83;;;6.20;99.40;;;;;;4994070;28;20476;-70
2021/11/26 00:05:09;;;;;;;55.17;29.50;;;6.30;99.30;;;;;;4993966;28;20444;-70
2021/11/26 00:07:36;;;;;;;55.30;27.83;;;6.30;99.30;;;;;;4994067;28;20459;-70
2021/11/26 00:10:05;;;;;;;61.97;32.47;;;6.40;99.30;;;;;;4994046;28;20464;-70
2021/11/26 00:12:33;;;;;;;59.27;30.93;;;6.40;99.10;;;;;;4994151;28;20518;-70
2021/11/26 00:15:15;;;;;;;63.70;30.70;;;6.40;99.00;;;;;;4994134;28;20448;-70
2021/11/26 00:17:49;;;;;;;51.77;30.17;;;6.30;98.90;;;;;;4994035;28;20432;-70
2021/11/26 00:20:16;;;;;;;59.90;28.40;;;6.40;98.80;;;;;;4993474;28;20480;-70
2021/11/26 00:22:44;;;;;;;66.33;32.63;;;6.40;98.80;;;;;;4993803;28;20492;-70
2021/11/26 00:25:11;;;;;;;59.43;31.30;;;6.40;98.80;;;;;;4993915;28;20448;-70
2021/11/26 00:27:39;;;;;;;67.73;32.43;;;6.30;98.70;;;;;;4994289;28;20456;-70
2021/11/26 00:30:07;;;;;;;62.00;31.57;;;6.30;98.70;;;;;;4993579;28;20453;-70
2021/11/26 00:32:34;;;;;;;67.07;34.20;;;6.30;98.80;;;;;;4993790;28;20448;-70
2021/11/26 00:35:01;;;;;;;65.40;35.13;;;6.20;98.70;;;;;;4993758;28;20814;-70
2021/11/26 00:37:28;;;;;;;54.47;31.00;;;6.20;98.80;;;;;;4993797;28;20555;-70
2021/11/26 00:39:55;;;;;;;59.90;32.10;;;6.20;99.00;;;;;;4993758;28;20472;-70
2021/11/26 00:42:22;;;;;;;63.67;31.30;;;6.20;99.00;;;;;;4995360;28;20480;-70
2021/11/26 00:44:50;;;;;;;70.67;31.40;;;6.20;99.00;;;;;;4997917;28;20444;-70
2021/11/26 00:47:17;;;;;;;69.37;32.83;;;6.20;99.10;;;;;;4997777;28;20448;-70
2021/11/26 00:49:44;;;;;;;60.20;31.97;;;6.20;99.00;;;;;;4997106;28;20571;-70
2021/11/26 00:52:11;;;;;;;65.80;30.57;;;6.10;99.10;;;;;;4997246;28;20448;-70
2021/11/26 00:54:38;;;;;;;64.33;30.93;;;6.10;99.20;;;;;;4997145;28;20985;-70
2021/11/26 00:57:08;;;;;;;55.60;30.40;;;6.20;99.20;;;;;;4997452;28;20452;-70
2021/11/26 00:59:35;;;;;;;58.73;29.00;;;6.20;99.10;;;;;;4997156;28;20822;-70
2021/11/26 01:02:03;;;;;;;65.67;32.77;;;6.20;99.20;;;;;;4997487;28;20488;-70
2021/11/26 01:04:30;;;;;;;56.37;29.70;;;6.10;99.00;;;;;;4996957;28;20454;-70
2021/11/26 01:06:57;;;;;;;65.47;31.63;;;6.10;99.00;;;;;;4997326;28;20452;-70
2021/11/26 01:09:25;;;;;;;59.70;29.17;;;6.10;99.00;;;;;;4997429;28;20475;-70
2021/11/26 01:11:51;;;;;;;48.47;28.37;;;6.10;99.10;;;;;;4997158;28;20478;-70
2021/11/26 01:14:18;;;;;;;56.50;28.20;;;6.10;99.00;;;;;;4996784;28;20452;-70
2021/11/26 01:16:45;;;;;;;50.60;27.90;;;6.00;99.00;;;;;;4998020;28;20433;-70
2021/11/26 01:19:14;;;;;;;51.40;27.97;;;6.00;99.00;;;;;;4997086;28;20462;-70
2021/11/26 01:21:40;;;;;;;50.30;27.13;;;6.00;98.90;;;;;;4997003;28;20425;-70
2021/11/26 01:24:07;;;;;;;48.70;26.53;;;6.00;98.70;;;;;;4996899;28;20494;-70
2021/11/26 01:26:34;;;;;;;52.00;27.57;;;6.00;98.60;;;;;;4996620;28;20452;-70
2021/11/26 01:29:01;;;;;;;47.93;25.23;;;6.00;98.60;;;;;;4996737;28;20543;-71
2021/11/26 01:31:28;;;;;;;48.43;25.70;;;6.00;98.50;;;;;;4996590;28;20946;-70
2021/11/26 01:33:55;;;;;;;50.53;26.93;;;6.00;98.50;;;;;;4996776;28;20484;-70
2021/11/26 01:36:24;;;;;;;46.80;26.20;;;5.90;98.30;;;;;;4996814;28;20456;-70
2021/11/26 01:38:50;;;;;;;46.63;24.63;;;5.90;98.40;;;;;;4996627;28;20835;-70
2021/11/26 01:41:17;;;;;;;44.23;23.87;;;5.80;98.50;;;;;;4996366;28;20966;-70
2021/11/26 01:43:44;;;;;;;44.77;24.70;;;5.80;98.60;;;;;;4996698;28;20484;-70
2021/11/26 01:46:11;;;;;;;44.20;24.90;;;5.70;98.50;;;;;;4996658;28;20451;-70
2021/11/26 01:48:40;;;;;;;41.50;22.70;;;5.70;98.70;;;;;;4996561;28;20820;-70
2021/11/26 01:51:08;;;;;;;45.23;24.80;;;5.70;98.80;;;;;;4996464;28;20452;-70
2021/11/26 01:53:37;;;;;;;33.07;21.70;;;5.70;98.80;;;;;;4995631;28;20452;-70
2021/11/26 01:56:04;;;;;;;45.77;24.73;;;5.70;98.70;;;;;;4996357;28;20459;-70
2021/11/26 01:58:32;;;;;;;43.13;22.60;;;5.70;98.60;;;;;;4996275;28;20473;-70
2021/11/26 02:01:01;;;;;;;40.40;20.43;;;5.70;98.60;;;;;;4996950;28;20452;-70
2021/11/26 02:03:28;;;;;;;40.97;21.20;;;5.60;98.50;;;;;;4996778;28;20476;-70
2021/11/26 02:05:55;;;;;;;34.43;20.90;;;5.60;98.60;;;;;;4995871;28;20898;-70
2021/11/26 02:08:22;;;;;;;34.53;20.30;;;5.50;98.50;;;;;;4996092;28;20507;-70
2021/11/26 02:10:50;;;;;;;34.70;21.10;;;5.50;98.70;;;;;;4996196;28;20558;-70
2021/11/26 02:13:17;;;;;;;34.83;19.33;;;5.60;98.80;;;;;;4996086;28;20451;-70
2021/11/26 02:15:45;;;;;;;32.60;20.00;;;5.60;98.80;;;;;;4996067;28;20464;-70
2021/11/26 02:18:15;;;;;;;34.50;19.50;;;5.50;98.80;;;;;;4996581;28;20814;-70
2021/11/26 02:20:44;;;;;;;30.47;18.40;;;5.50;99.00;;;;;;4995934;28;20461;-70
2021/11/26 02:23:11;;;;;;;32.23;19.80;;;5.50;99.10;;;;;;4995446;28;20480;-70
2021/11/26 02:25:38;;;;;;;30.60;18.03;;;5.50;99.20;;;;;;4996523;28;20463;-70
2021/11/26 02:28:07;;;;;;;29.53;18.37;;;5.50;99.30;;;;;;4995693;28;20458;-70
2021/11/26 02:30:34;;;;;;;40.93;19.37;;;5.50;99.30;;;;;;4995394;28;20448;-70
2021/11/26 02:33:04;;;;;;;36.97;19.60;;;5.50;99.40;;;;;;4995740;28;20444;-70
2021/11/26 02:35:32;;;;;;;35.47;17.93;;;5.50;99.40;;;;;;4995321;28;20965;-70
2021/11/26 02:38:02;;;;;;;28.23;17.40;;;5.50;99.40;;;;;;4995479;28;20461;-70
2021/11/26 02:40:30;;;;;;;27.87;17.57;;;5.50;99.50;;;;;;4995540;28;20459;-70
2021/11/26 02:42:57;;;;;;;24.33;17.67;;;5.50;99.30;;;;;;4995415;28;20578;-70
2021/11/26 02:45:25;;;;;;;31.90;17.23;;;5.50;99.30;;;;;;4995413;28;20452;-70
2021/11/26 02:47:54;;;;;;;33.10;17.00;;;5.50;99.30;;;;;;4995301;28;20448;-70
2021/11/26 02:50:23;;;;;;;27.70;16.40;;;5.50;99.30;;;;;;4994979;28;21024;-70
2021/11/26 02:52:50;;;;;;;26.93;15.63;;;5.50;99.30;;;;;;4995061;28;20960;-70
2021/11/26 02:55:21;;;;;;;28.70;16.30;;;5.50;99.30;;;;;;4995052;28;20957;-69
2021/11/26 02:57:48;;;;;;;29.93;17.00;;;5.50;99.40;;;;;;4994998;28;20440;-68
2021/11/26 03:00:17;;;;;;;35.67;18.17;;;5.40;99.60;;;;;;4995168;28;20471;-68
2021/11/26 03:02:44;;;;;;;31.13;16.43;;;5.40;99.60;;;;;;4996067;28;20475;-68
2021/11/26 03:05:12;;;;;;;31.43;17.13;;;5.40;99.70;;;;;;4994255;28;20444;-68
2021/11/26 03:07:39;;;;;;;27.23;16.70;;;5.50;99.80;;;;;;4995155;28;20498;-68
2021/11/26 03:10:08;;;;;;;31.50;15.70;;;5.60;99.80;;;;;;4995105;28;20476;-68
2021/11/26 03:12:37;;;;;;;30.57;17.33;;;5.60;99.60;;;;;;4995573;28;20531;-68
2021/11/26 03:15:05;;;;;;;33.93;17.33;;;5.60;99.50;;;;;;4994907;28;20455;-69
2021/11/26 03:17:32;;;;;;;30.37;16.97;;;5.60;99.40;;;;;;4994889;28;20456;-69
2021/11/26 03:19:59;;;;;;;33.60;17.70;;;5.60;99.20;;;;;;4994458;28;20578;-69
2021/11/26 03:22:26;;;;;;;35.33;16.93;;;5.60;99.30;;;;;;4994579;28;20456;-69
2021/11/26 03:24:53;;;;;;;31.80;18.10;;;5.70;99.30;;;;;;4994709;28;20455;-69
2021/11/26 03:27:20;;;;;;;33.60;19.20;;;5.70;99.30;;;;;;4994543;28;20464;-69
2021/11/26 03:29:48;;;;;;;34.30;18.67;;;5.70;99.30;;;;;;4995100;28;20480;-69
2021/11/26 03:32:15;;;;;;;38.87;22.20;;;5.60;99.30;;;;;;4994652;28;20552;-69
2021/11/26 03:34:42;;;;;;;32.27;18.50;;;5.60;99.20;;;;;;4994270;28;20444;-69
2021/11/26 03:37:09;;;;;;;25.60;16.93;;;5.60;99.20;;;;;;4994511;28;20814;-69
2021/11/26 03:39:35;;;;;;;32.40;16.80;;;5.50;99.30;;;;;;4994189;28;20469;-69
2021/11/26 03:42:02;;;;;;;36.60;19.50;;;5.60;99.50;;;;;;4994544;28;20946;-69
2021/11/26 03:44:29;;;;;;;35.50;18.20;;;5.50;99.50;;;;;;4994305;28;20484;-69
2021/11/26 03:46:57;;;;;;;40.53;19.13;;;5.60;99.50;;;;;;4994034;28;20452;-69
2021/11/26 03:49:24;;;;;;;46.07;21.07;;;5.50;99.50;;;;;;4994220;28;20468;-69
2021/11/26 03:51:51;;;;;;;37.40;20.10;;;5.60;99.60;;;;;;4994247;28;20474;-69
2021/11/26 03:54:18;;;;;;;27.10;20.13;;;5.60;99.50;;;;;;4994176;28;20448;-69
2021/11/26 03:56:44;;;;;;;36.30;18.40;;;5.70;99.70;;;;;;4994232;28;20453;-69
2021/11/26 03:59:11;;;;;;;30.90;20.10;;;5.60;99.50;;;;;;4993777;28;21049;-69
2021/11/26 04:01:38;;;;;;;34.33;21.20;;;5.70;99.60;;;;;;4994210;28;20455;-69
2021/11/26 04:04:06;;;;;;;37.33;19.93;;;5.70;99.40;;;;;;4993720;28;20982;-69
2021/11/26 04:06:33;;;;;;;30.93;19.87;;;5.70;99.40;;;;;;4994192;28;20452;-69
2021/11/26 04:09:00;;;;;;;31.27;18.67;;;5.70;99.50;;;;;;4994527;28;20472;-69
2021/11/26 04:11:27;;;;;;;25.93;18.87;;;5.70;99.40;;;;;;4995134;28;20437;-69
2021/11/26 04:13:54;;;;;;;27.80;17.83;;;5.80;99.50;;;;;;4994181;28;20448;-69
2021/11/26 04:16:21;;;;;;;31.10;19.83;;;5.80;99.30;;;;;;4993474;28;20456;-69
2021/11/26 04:18:47;;;;;;;27.63;17.83;;;5.80;99.40;;;;;;4993578;28;20978;-69
2021/11/26 04:21:15;;;;;;;27.83;18.40;;;5.90;99.50;;;;;;4993705;28;20456;-69
2021/11/26 04:23:44;;;;;;;32.73;19.30;;;5.90;99.40;;;;;;4993778;28;20487;-69
2021/11/26 04:26:11;;;;;;;30.60;19.93;;;6.00;99.40;;;;;;4994619;28;20452;-69
2021/11/26 04:28:38;;;;;;;32.10;19.57;;;6.10;99.30;;;;;;4993654;28;20821;-69
2021/11/26 04:31:05;;;;;;;29.63;18.70;;;6.00;99.00;;;;;;4993923;28;20448;-69
2021/11/26 04:33:34;;;;;;;29.10;19.40;;;6.10;99.00;;;;;;4993811;28;20451;-69
2021/11/26 04:36:01;;;;;;;30.27;18.50;;;6.00;98.80;;;;;;4993777;28;20448;-69
2021/11/26 04:38:29;;;;;;;30.50;19.67;;;6.00;98.90;;;;;;4993418;28;20474;-69
2021/11/26 04:40:57;;;;;;;29.13;19.50;;;5.90;99.10;;;;;;4993799;28;20829;-69
2021/11/26 04:43:24;;;;;;;31.10;20.90;;;6.00;99.30;;;;;;4993723;28;20507;-69
2021/11/26 04:45:51;;;;;;;25.53;19.07;;;5.90;99.20;;;;;;4993670;28;20462;-69
2021/11/26 04:48:18;;;;;;;25.60;18.00;;;6.00;99.30;;;;;;4993372;28;20985;-69
2021/11/26 04:50:45;;;;;;;28.13;18.97;;;6.00;99.30;;;;;;4993740;28;20447;-69
2021/11/26 04:53:12;;;;;;;22.27;17.47;;;6.00;99.10;;;;;;4993740;28;20451;-69
2021/11/26 04:55:40;;;;;;;26.70;18.53;;;6.00;99.20;;;;;;4993752;28;20448;-69
2021/11/26 04:58:07;;;;;;;21.90;16.50;;;6.00;99.30;;;;;;4993629;28;20882;-68
2021/11/26 05:00:35;;;;;;;27.80;17.77;;;6.00;99.30;;;;;;4993641;28;20452;-68
2021/11/26 05:03:01;;;;;;;27.13;16.90;;;6.00;99.60;;;;;;4993425;28;20444;-68
2021/11/26 05:05:28;;;;;;;26.30;19.90;;;6.00;99.40;;;;;;4994327;28;20821;-68
2021/11/26 05:07:57;;;;;;;25.50;19.00;;;6.00;99.20;;;;;;4993255;28;20819;-68
2021/11/26 05:10:24;;;;;;;27.80;17.43;;;6.10;99.20;;;;;;4993187;28;20823;-68
2021/11/26 05:12:54;;;;;;;27.97;17.20;;;6.10;99.30;;;;;;4993610;28;20460;-68
2021/11/26 05:15:26;;;;;;;23.10;16.80;;;6.10;99.30;;;;;;4993620;28;20433;-68
2021/11/26 05:17:54;;;;;;;26.00;17.40;;;6.00;99.10;;;;;;4993332;28;20432;-68
2021/11/26 05:20:21;;;;;;;21.63;16.20;;;6.00;99.30;;;;;;4993152;28;20866;-68
2021/11/26 05:22:48;;;;;;;26.67;18.13;;;6.00;99.40;;;;;;4993239;28;20448;-68
2021/11/26 05:25:15;;;;;;;25.03;17.87;;;5.90;99.50;;;;;;4993395;28;20480;-68
2021/11/26 05:27:42;;;;;;;25.53;18.20;;;5.90;99.60;;;;;;4993119;28;20957;-68
2021/11/26 05:30:14;;;;;;;22.27;17.40;;;5.90;99.60;;;;;;4996542;28;20559;-68
2021/11/26 05:32:42;;;;;;;22.77;16.10;;;5.90;99.70;;;;;;4996472;28;20482;-68
2021/11/26 05:35:10;;;;;;;22.60;16.77;;;6.00;99.80;;;;;;4996480;28;20452;-68
2021/11/26 05:37:37;;;;;;;21.30;16.67;;;6.00;99.60;;;;;;4996739;28;20456;-68
2021/11/26 05:40:06;;;;;;;25.97;17.73;;;6.00;99.60;;;;;;4996732;28;20468;-68
2021/11/26 05:42:32;;;;;;;22.10;16.10;;;5.90;99.50;;;;;;4996619;28;20444;-68
2021/11/26 05:44:59;;;;;;;22.90;17.90;;;5.90;99.80;;;;;;4996646;28;20483;-68
2021/11/26 05:47:27;;;;;;;22.73;17.70;;;5.80;99.90;;;;;;4996663;28;20453;-68
2021/11/26 05:49:54;;;;;;;22.00;15.30;;;5.80;99.90;;;;;;4996185;28;20465;-68
2021/11/26 05:52:21;;;;;;;20.23;15.00;;;5.80;99.90;;;;;;4996173;28;20950;-68
2021/11/26 05:54:48;;;;;;;20.77;15.30;;;5.70;99.90;;;;;;4996455;28;20448;-68
2021/11/26 05:57:14;;;;;;;20.07;14.03;;;5.60;99.90;;;;;;4996401;28;20454;-68
2021/11/26 05:59:41;;;;;;;18.60;13.77;;;5.70;99.90;;;;;;4996247;28;20476;-68
2021/11/26 06:02:08;;;;;;;20.30;16.00;;;5.60;99.90;;;;;;4996287;28;20456;-68
2021/11/26 06:04:36;;;;;;;20.13;15.10;;;5.60;99.90;;;;;;4996198;28;20484;-68
2021/11/26 06:07:03;;;;;;;22.83;15.23;;;5.60;99.90;;;;;;4996273;28;20448;-68
2021/11/26 06:09:30;;;;;;;22.13;14.40;;;5.60;99.90;;;;;;4995745;28;20500;-68
2021/11/26 06:11:57;;;;;;;18.20;14.97;;;5.70;99.90;;;;;;4995967;28;20471;-68
2021/11/26 06:14:23;;;;;;;24.07;14.80;;;5.70;99.90;;;;;;4995986;28;20439;-68
2021/11/26 06:16:50;;;;;;;18.33;14.33;;;5.70;99.90;;;;;;4995884;28;20459;-68
2021/11/26 06:19:17;;;;;;;19.43;14.67;;;5.70;99.90;;;;;;4995331;28;20483;-68
2021/11/26 06:21:46;;;;;;;18.90;14.43;;;5.70;99.90;;;;;;4995922;28;20436;-68
2021/11/26 06:24:12;;;;;;;17.60;14.47;;;5.70;99.90;;;;;;4995613;28;20483;-68
2021/11/26 06:26:40;;;;;;;17.90;15.03;;;5.70;99.90;;;;;;4995469;28;20448;-68
2021/11/26 06:29:07;;;;;;;18.03;14.20;;;5.70;99.90;;;;;;4995484;28;20522;-68
2021/11/26 06:31:34;;;;;;;26.00;13.83;;;5.80;99.90;;;;;;4995758;28;20440;-68
2021/11/26 06:34:01;;;;;;;21.33;14.40;;;5.80;99.90;;;;;;4996553;28;20786;-68
2021/11/26 06:36:27;;;;;;;19.27;13.63;;;5.80;99.90;;;;;;4995921;28;20436;-68
2021/11/26 06:38:56;;;;;;;18.13;13.17;;;5.80;99.90;;;;;;4995683;28;20473;-68
2021/11/26 06:41:23;;;;;;;16.87;12.67;;;5.80;99.90;;;;;;4995382;28;20452;-68
2021/11/26 06:43:50;;;;;;;16.00;12.60;;;5.80;99.90;;;;;;4995489;28;20488;-68
2021/11/26 06:46:17;;;;;;;15.07;12.00;;;5.90;99.90;;;;;;4995573;28;20436;-68
2021/11/26 06:48:43;;;;;;;15.17;12.67;;;5.80;99.90;;;;;;4995408;28;20475;-68
2021/11/26 06:51:11;;;;;;;19.20;13.53;;;5.80;99.90;;;;;;4995956;28;20872;-68
2021/11/26 06:53:37;;;;;;;22.27;13.13;;;5.80;99.90;;;;;;4995320;28;20456;-68
2021/11/26 06:56:06;;;;;;;20.23;13.60;;;5.70;99.90;;;;;;4995344;28;20447;-68
2021/11/26 06:58:33;;;;;;;17.97;14.50;;;5.70;99.90;;;;;;4995153;28;20479;-68
2021/11/26 07:01:00;;;;;;;18.07;12.50;;;5.70;99.90;;;;;;4995272;28;20433;-68
2021/11/26 07:03:27;;;;;;;18.30;13.67;;;5.80;99.90;;;;;;4995218;28;20826;-68
2021/11/26 07:05:53;;;;;;;19.90;14.73;;;5.70;99.90;;;;;;4995142;28;20491;-68
2021/11/26 07:08:20;;;;;;;19.70;15.00;;;5.70;99.90;;;;;;4995031;28;20465;-68
2021/11/26 07:10:47;;;;;;;19.93;14.87;;;5.70;99.90;;;;;;4995013;28;20467;-68
2021/11/26 07:13:15;;;;;;;19.73;14.27;;;5.70;99.90;;;;;;4994958;28;20448;-68
2021/11/26 07:15:42;;;;;;;18.37;15.33;;;5.70;99.90;;;;;;4994570;28;20448;-68
2021/11/26 07:18:09;;;;;;;19.27;14.87;;;5.70;99.90;;;;;;4994799;28;20453;-68
2021/11/26 07:20:38;;;;;;;18.90;13.33;;;5.80;99.90;;;;;;4994487;28;20842;-68
2021/11/26 07:23:05;;;;;;;20.07;14.30;;;5.80;99.90;;;;;;4994454;28;20456;-68
2021/11/26 07:25:32;;;;;;;19.37;12.20;;;5.90;99.90;;;;;;4994299;28;20484;-68
2021/11/26 07:27:59;;;;;;;19.77;12.20;;;6.00;99.90;;;;;;4994300;28;20456;-68
2021/11/26 07:30:27;;;;;;;13.90;12.00;;;6.00;99.90;;;;;;4994419;28;20807;-68
2021/11/26 07:32:54;;;;;;;20.87;12.80;;;6.00;99.90;;;;;;4994683;28;20448;-68
2021/11/26 07:35:21;;;;;;;21.27;12.40;;;5.90;99.90;;;;;;4994703;28;20444;-68
2021/11/26 07:37:48;;;;;;;24.37;12.90;;;6.00;99.90;;;;;;4994269;28;20953;-68
2021/11/26 07:40:15;;;;;;;22.13;13.67;;;6.00;99.90;;;;;;4994490;28;20476;-68
2021/11/26 07:42:43;;;;;;;27.43;15.00;;;5.90;99.80;;;;;;4994518;28;20479;-68
2021/11/26 07:45:11;;;;;;;25.93;16.20;;;5.90;99.90;;;;;;4994063;28;20484;-68
2021/11/26 07:47:40;;;;;;;26.60;16.17;;;5.90;99.90;;;;;;4994276;28;20479;-69
2021/11/26 07:50:08;;;;;;;29.97;16.43;;;5.80;99.90;;;;;;4994257;28;20495;-69
2021/11/26 07:52:35;;;;;;;30.47;16.43;;;5.80;99.90;;;;;;4993667;28;20543;-69
2021/11/26 07:55:02;;;;;;;26.10;16.37;;;5.80;99.90;;;;;;4994244;28;20452;-69
2021/11/26 07:57:28;;;;;;;27.33;16.73;;;5.90;99.90;;;;;;4995024;28;20454;-69
2021/11/26 07:59:55;;;;;;;32.77;17.60;;;5.80;99.90;;;;;;4994133;28;20460;-69
2021/11/26 08:02:22;;;;;;;22.67;16.77;;;5.80;99.90;;;;;;4994270;28;20799;-69
2021/11/26 08:04:50;;;;;;;23.73;16.07;;;5.70;99.90;;;;;;4993822;28;20484;-69
2021/11/26 08:07:17;;;;;;;23.53;15.33;;;5.80;99.90;;;;;;4993856;28;20969;-69
2021/11/26 08:09:44;;;;;;;28.57;14.90;;;5.70;99.90;;;;;;4993755;28;21020;-69
2021/11/26 08:12:11;;;;;;;26.50;16.00;;;5.70;99.80;;;;;;4993822;28;20951;-69
2021/11/26 08:14:37;;;;;;;22.07;14.97;;;5.70;99.80;;;;;;4994162;28;20448;-69
2021/11/26 08:17:04;;;;;;;26.20;13.83;;;5.80;99.80;;;;;;4994087;28;20440;-69
2021/11/26 08:19:31;;;;;;;20.37;13.07;;;5.80;99.60;;;;;;4993848;28;20523;-69
2021/11/26 08:21:59;;;;;;;27.10;15.13;;;5.80;99.50;;;;;;4994035;28;20429;-69
2021/11/26 08:24:26;;;;;;;25.27;13.23;;;5.90;99.40;;;;;;4993967;28;20488;-69
2021/11/26 08:26:54;;;;;;;22.60;12.03;;;5.90;99.20;;;;;;4994027;28;20524;-69
2021/11/26 08:29:21;;;;;;;21.10;11.73;;;5.80;99.20;;;;;;4993953;28;20472;-69
2021/11/26 08:31:48;;;;;;;23.57;12.80;;;5.80;98.80;;;;;;4993957;28;20454;-69
2021/11/26 08:34:15;;;;;;;17.87;11.37;;;5.80;98.70;;;;;;4993878;28;20444;-69
2021/11/26 08:36:42;;;;;;;33.00;12.90;;;5.80;98.50;;;;;;4993813;28;20942;-69
2021/11/26 08:39:10;;;;;;;26.00;12.40;;;5.80;98.50;;;;;;4993738;28;20472;-69
2021/11/26 08:41:37;;;;;;;22.93;13.47;;;5.80;98.60;;;;;;4993645;28;20444;-69
2021/11/26 08:44:05;;;;;;;29.70;12.30;;;5.80;98.50;;;;;;4993511;28;20955;-69
2021/11/26 08:46:32;;;;;;;24.27;13.10;;;5.80;98.50;;;;;;4993779;28;20455;-69
2021/11/26 08:48:59;;;;;;;19.33;13.83;;;5.80;98.50;;;;;;4993698;28;20468;-69
2021/11/26 08:51:28;;;;;;;25.23;13.60;;;5.80;98.30;;;;;;4993730;28;20472;-69
2021/11/26 08:53:56;;;;;;;24.30;12.70;;;5.80;98.40;;;;;;4993779;28;20437;-69
2021/11/26 08:56:25;;;;;;;26.97;13.23;;;5.90;98.40;;;;;;4993710;28;20534;-69
2021/11/26 08:58:52;;;;;;;29.27;13.03;;;5.90;98.20;;;;;;4993654;28;20898;-69
2021/11/26 09:01:19;;;;;;;21.13;13.80;;;5.90;98.00;;;;;;4993653;28;20436;-69
2021/11/26 09:03:47;;;;;;;20.07;12.03;;;5.90;97.90;;;;;;4995898;28;20450;-69
2021/11/26 09:06:16;;;;;;;27.37;12.60;;;5.90;97.80;;;;;;4997288;28;20480;-69
2021/11/26 09:08:43;;;;;;;25.63;12.73;;;5.90;97.90;;;;;;4997281;28;20464;-69
2021/11/26 09:11:10;;;;;;;22.83;12.07;;;5.80;97.70;;;;;;4997352;28;20439;-69
2021/11/26 09:13:38;;;;;;;27.23;12.67;;;5.80;97.70;;;;;;4996989;28;20784;-69
2021/11/26 09:16:05;;;;;;;27.50;12.27;;;5.80;97.70;;;;;;4997211;28;20448;-69
2021/11/26 09:18:32;;;;;;;33.00;14.13;;;5.80;97.60;;;;;;4997149;28;20855;-69
2021/11/26 09:20:59;;;;;;;22.40;12.93;;;5.80;97.30;;;;;;4996700;28;20476;-69
2021/11/26 09:23:26;;;;;;;21.80;11.40;;;5.90;97.30;;;;;;4996999;28;20448;-69
2021/11/26 09:25:55;;;;;;;23.10;12.13;;;5.80;97.00;;;;;;4997023;28;20487;-69
2021/11/26 09:28:22;;;;;;;26.03;12.10;;;5.90;97.10;;;;;;4996987;28;20468;-69
2021/11/26 09:30:51;;;;;;;25.07;12.30;;;5.80;96.80;;;;;;4997024;28;20448;-69
2021/11/26 09:33:19;;;;;;;24.77;11.30;;;5.80;96.60;;;;;;4996906;28;20440;-69
2021/11/26 09:35:46;;;;;;;19.50;11.90;;;5.90;96.40;;;;;;4996752;28;20452;-69
2021/11/26 09:38:14;;;;;;;20.60;12.20;;;5.90;96.40;;;;;;4997496;28;20860;-69
2021/11/26 09:40:42;;;;;;;22.30;11.93;;;6.00;96.60;;;;;;4996344;28;20965;-69
2021/11/26 09:43:08;;;;;;;27.70;12.10;;;6.00;95.30;;;;;;4996684;28;20502;-69
2021/11/26 09:45:35;;;;;;;20.70;12.10;;;5.90;94.40;;;;;;4996533;28;20555;-69
2021/11/26 09:48:04;;;;;;;26.77;13.73;;;5.90;93.90;;;;;;4996473;28;20544;-69
2021/11/26 09:50:33;;;;;;;26.47;14.30;;;5.90;93.90;;;;;;4996110;28;20437;-69
2021/11/26 09:53:15;;;;;;;20.30;11.33;;;5.90;93.80;;;;;;4996584;28;20548;-69
2021/11/26 09:55:48;;;;;;;16.93;9.23;;;6.00;93.10;;;;;;4996532;28;20515;-69
2021/11/26 09:58:16;;;;;;;25.33;11.40;;;6.10;92.50;;;;;;4996016;28;20456;-69
2021/11/26 10:00:43;;;;;;;21.70;10.63;;;6.10;92.20;;;;;;4996389;28;20555;-69
2021/11/26 10:03:12;;;;;;;20.40;11.23;;;6.00;91.30;;;;;;4996057;28;20925;-69
2021/11/26 10:05:39;;;;;;;17.10;10.87;;;6.00;91.40;;;;;;4996166;28;20847;-69
2021/11/26 10:08:06;;;;;;;17.57;10.83;;;5.90;91.10;;;;;;4996212;28;20455;-69
2021/11/26 10:10:36;;;;;;;20.63;10.07;;;6.00;91.20;;;;;;4996236;28;20451;-69
2021/11/26 10:13:07;;;;;;;16.13;9.53;;;6.00;91.20;;;;;;4995827;28;20942;-69
2021/11/26 10:15:37;;;;;;;19.50;9.90;;;6.00;90.30;;;;;;4995391;28;20451;-69
2021/11/26 10:18:15;;;;;;;17.40;9.70;;;6.00;90.50;;;;;;4996042;28;20874;-69
2021/11/26 10:21:02;;;;;;;16.10;9.10;;;6.10;90.60;;;;;;4995578;28;20958;-70
2021/11/26 10:23:32;;;;;;;19.43;9.23;;;6.20;90.30;;;;;;4996037;28;20440;-70
2021/11/26 10:26:11;;;;;;;15.47;8.90;;;6.20;89.30;;;;;;4995593;28;20847;-70
2021/11/26 10:28:39;;;;;;;18.77;8.30;;;6.20;88.20;;;;;;4995887;28;20827;-70
2021/11/26 10:31:05;;;;;;;11.90;6.47;;;6.20;87.00;;;;;;4995633;28;20455;-70
2021/11/26 10:33:35;;;;;;;18.57;7.23;;;6.10;86.00;;;;;;4995517;28;20934;-70
2021/11/26 10:36:06;;;;;;;13.90;6.27;;;6.20;86.40;;;;;;4995713;28;20539;-70
2021/11/26 10:38:35;;;;;;;15.70;6.73;;;6.20;86.10;;;;;;4995707;28;21032;-70
2021/11/26 10:41:05;;;;;;;13.33;6.40;;;6.20;84.90;;;;;;4995672;28;20471;-70
2021/11/26 10:43:39;;;;;;;13.23;6.63;;;6.30;85.40;;;;;;4996367;28;20531;-70
2021/11/26 10:49:03;;;;;;;15.40;6.10;;;6.60;83.70;;;;;;4984976;28;20455;-70
2021/11/26 10:57:24;;;;;;;7.93;4.20;;;6.80;82.60;;;;;;4995475;28;20455;-70
2021/11/26 10:59:54;;;;;;;7.43;4.20;;;6.80;78.80;;;;;;4995258;28;20479;-69
2021/11/26 11:02:28;;;;;;;12.63;5.20;;;6.80;79.70;;;;;;4994911;28;20934;-69
2021/11/26 11:04:57;;;;;;;8.37;4.43;;;6.90;79.90;;;;;;4994827;28;20965;-69
2021/11/26 11:07:24;;;;;;;9.40;4.43;;;7.00;80.10;;;;;;4995581;28;20448;-71
2021/11/26 11:09:53;;;;;;;14.00;4.60;;;7.10;78.60;;;;;;4995018;28;20479;-70
2021/11/26 11:12:30;;;;;;;7.40;3.70;;;7.10;77.50;;;;;;4995011;28;20445;-70
2021/11/26 11:14:59;;;;;;;7.67;4.07;;;7.10;77.10;;;;;;4994769;28;20463;-70
2021/11/26 11:17:28;;;;;;;12.50;4.40;;;7.20;77.70;;;;;;4994951;28;20452;-70
2021/11/26 11:20:00;;;;;;;10.87;4.03;;;7.20;77.10;;;;;;4994656;28;20580;-70
2021/11/26 11:22:28;;;;;;;13.77;4.10;;;7.30;77.30;;;;;;4994632;28;20447;-71
2021/11/26 11:24:55;;;;;;;10.03;4.37;;;7.30;77.20;;;;;;4994517;28;20443;-70
2021/11/26 11:27:22;;;;;;;9.70;4.30;;;7.30;77.30;;;;;;4993648;28;21019;-70
2021/11/26 11:29:48;;;;;;;11.90;4.97;;;7.40;78.10;;;;;;4994522;28;20549;-71
2021/11/26 11:32:16;;;;;;;8.70;3.97;;;7.50;77.60;;;;;;4995036;28;20447;-71
2021/11/26 11:34:45;;;;;;;5.13;3.70;;;7.50;76.40;;;;;;4994910;28;20457;-70
2021/11/26 11:37:18;;;;;;;9.10;4.70;;;7.60;75.70;;;;;;4994750;28;20444;-70
2021/11/26 11:39:49;;;;;;;16.37;4.53;;;7.50;77.10;;;;;;4994637;28;20487;-70
2021/11/26 11:42:25;;;;;;;7.30;3.67;;;7.50;77.20;;;;;;4994605;28;20437;-70
2021/11/26 11:44:58;;;;;;;8.00;3.80;;;7.50;77.60;;;;;;4994333;28;20922;-70
2021/11/26 11:47:26;;;;;;;14.23;4.47;;;7.60;78.20;;;;;;4994274;28;20432;-70
2021/11/26 11:50:06;;;;;;;10.83;4.13;;;7.50;77.80;;;;;;4994463;28;20476;-70
2021/11/26 11:52:44;;;;;;;11.27;5.60;;;7.50;77.60;;;;;;4994641;28;20443;-70
2021/11/26 11:55:23;;;;;;;9.93;4.50;;;7.50;77.90;;;;;;4994569;28;20439;-70
2021/11/26 11:57:50;;;;;;;6.23;4.07;;;7.60;78.60;;;;;;4994421;28;20436;-70
2021/11/26 12:00:20;;;;;;;8.80;5.37;;;7.70;79.10;;;;;;4994527;28;20559;-70
2021/11/26 12:02:49;;;;;;;8.27;4.77;;;7.70;78.80;;;;;;4994327;28;20437;-70
2021/11/26 12:05:25;;;;;;;10.97;5.00;;;7.80;79.00;;;;;;4993900;28;20893;-70
2021/11/26 12:08:06;;;;;;;14.13;4.43;;;7.90;78.90;;;;;;4994367;28;20519;-70
2021/11/26 12:10:43;;;;;;;9.03;4.13;;;8.10;78.60;;;;;;4994312;28;20440;-70
2021/11/26 12:13:19;;;;;;;10.93;5.40;;;8.10;77.60;;;;;;4994042;28;20439;-70
2021/11/26 12:15:46;;;;;;;11.43;5.37;;;8.20;78.10;;;;;;4994005;28;20432;-70
2021/11/26 12:18:13;;;;;;;11.10;4.90;;;8.20;77.80;;;;;;4994363;28;20455;-70
2021/11/26 12:20:43;;;;;;;11.30;4.80;;;8.20;77.50;;;;;;4993813;28;20471;-70
2021/11/26 12:23:19;;;;;;;16.80;5.90;;;8.20;77.00;;;;;;4994206;28;20445;-70
2021/11/26 12:25:53;;;;;;;9.20;4.60;;;8.20;77.60;;;;;;4994354;28;20526;-70
2021/11/26 12:28:23;;;;;;;9.10;4.37;;;8.30;77.60;;;;;;4994228;28;20439;-70
2021/11/26 12:30:59;;;;;;;12.80;5.07;;;8.20;77.20;;;;;;4993797;28;20821;-70
2021/11/26 12:33:28;;;;;;;17.73;4.47;;;8.20;77.60;;;;;;4994043;28;20436;-70
2021/11/26 12:35:58;;;;;;;6.80;4.50;;;8.20;78.20;;;;;;4993945;28;20453;-70
2021/11/26 12:38:41;;;;;;;10.60;4.67;;;8.30;78.30;;;;;;4995663;28;20464;-70
2021/11/26 12:41:09;;;;;;;8.03;3.60;;;8.20;78.20;;;;;;4998063;28;20523;-70
2021/11/26 12:43:44;;;;;;;14.10;4.40;;;8.10;78.30;;;;;;4998014;28;20432;-70
2021/11/26 12:46:22;;;;;;;8.77;3.47;;;8.10;78.80;;;;;;4997617;28;20831;-70
2021/11/26 12:49:07;;;;;;;8.23;3.73;;;8.00;78.70;;;;;;4997412;28;20467;-70
2021/11/26 12:51:34;;;;;;;9.17;4.00;;;7.90;79.70;;;;;;4997824;28;20437;-70
2021/11/26 12:54:05;;;;;;;6.43;3.20;;;7.80;79.60;;;;;;4997723;28;20440;-70